Tiempo atmosférico en la estación meteorológica de Plasencia, Cáceres (420 m.)



Fecha
DESCASC
Temp. máxima en grados centígrados (hora)
DESCASC
Temp. mínima en grados centígrados (hora)
DESCASC
Temp. media en grados centígrados
DESCASC
Racha de viento máxima en m/sg (hora)
DESCASC
Velocidad máxima media en intervalos de 10 minutos(hora)
DESCASC
Precipitaciones diarias en mm
DESCASC
Precipitaciones de 00:00 a 06:00 en mm
DESCASC
Precipitaciones de 06:00 a 12:00 en mm
DESCASC
Precipitaciones de 12:00 a 18:00 en mm
DESCASC
Precipitaciones de 18:00 a 24:00 en mm
DESCASC
28-02-2021 17.2 (17:10) 7.3 (08:30) 12.3 10 (13:10) 3.61 (10:30) 0 0 0 0 0
27-02-2021 20.9 (17:20) 8.5 (08:00) 14.7 4.17 (04:00) 1.67 (05:30) 0 0 0 0 0
26-02-2021 16.7 (17:00) 10.5 (01:30) 13.6 10.56 (10:30) 3.61 (08:30) 0 0 0 0 0
25-02-2021 15.1 (14:40) 9.3 (00:00) 12.2 8.89 (06:30) 3.61 (08:30) 0 0 0 0 0
24-02-2021 17.8 (16:10) 6.9 (00:00) 12.3 12.5 (12:20) 3.89 (13:00) 0 0 0 0 0
23-02-2021 17.2 (16:20) 3.9 (00:00) 10.6 8.89 (12:30) 2.78 (14:00) 0 0 0 0 0
22-02-2021 15.1 (17:10) 3.4 (00:00) 9.3 6.39 (14:20) 2.5 (13:20) 0 0 0 0 0
21-02-2021 15.5 (02:30) 6 (00:00) 10.8 10.28 (06:20) 3.89 (14:10) 13.9 0 9.5 4.4 0
20-02-2021 15.6 (16:50) 9 (00:00) 12.3 10 (16:10) 2.78 (23:59) 0 0 0 0 0
19-02-2021 18.2 (15:20) 7.9 (00:00) 13.1 8.06 (12:00) 2.22 (09:10) 0 0 0 0 0
18-02-2021 17.1 (15:20) 8.1 (00:00) 12.6 4.72 (15:40) 1.94 (15:40) 0 0 0 0 0
17-02-2021 18.3 (17:00) 9.9 (00:00) 14.1 5.28 (20:20) 1.94 (19:00) 0 0 0 0 0
16-02-2021 17.2 (15:20) 7.8 (00:00) 12.5 10.83 (03:20) 3.33 (03:20) 0 0 0 0 0
15-02-2021 17.1 (16:50) 8.1 (00:00) 12.6 11.39 (23:40) 4.72 (08:10) 0 0 0 0 0
14-02-2021 18.7 (16:50) 6.8 (00:00) 12.8 8.33 (15:50) 3.61 (22:00) 0 0 0 0 0
13-02-2021 17.7 (16:10) 5.1 (00:00) 11.4 6.67 (17:30) 2.5 (17:30) 0 0 0 0 0
12-02-2021 17.3 (17:00) 9.6 (00:00) 13.4 10.83 (03:40) 4.72 (03:40) 3.9 3.9 0 0 0
11-02-2021 16.6 (16:50) 9.9 (00:00) 13.3 5 (18:00) 1.67 (07:00) 3.5 1.2 1.2 1 0.1
10-02-2021 15.7 (15:40) 7.3 (00:00) 11.5 14.17 (01:50) 7.5 (03:20) 1 0.9 0.1 0 0
09-02-2021 12.3 (17:20) 8.4 (00:00) 10.3 15 (12:50) 7.22 (13:10) 20.9 3 10.7 6.8 0.4
08-02-2021 12.7 (15:50) 7.2 (00:00) 9.9 10.83 (16:50) 5 (04:20) 19.8 16.6 3 0.2 0
07-02-2021 11.6 (13:40) 4.8 (00:00) 8.2 7.78 (15:10) 4.17 (14:00) 4.4 0 0 0.9 3.5
06-02-2021 11.7 (15:50) 8.1 (00:00) 9.9 9.17 (22:20) 3.06 (22:20) 9.8 7.6 1 0.7 0.5
05-02-2021 13.2 (13:20) 8.3 (00:00) 10.8 7.5 (04:20) 3.33 (09:30) 16.8 2.3 6.2 1.8 6.5
04-02-2021 10.7 (02:00) 8.4 (00:00) 9.5 9.72 (18:40) 3.61 (18:50) 31.4 0.5 12 16.4 2.5
03-02-2021 13.5 (14:30) 9.7 (00:00) 11.6 6.39 (18:20) 2.78 (18:30) 17.6 0.3 4.8 7.7 4.8
02-02-2021 13.9 (16:40) 11 (00:00) 12.4 5.56 (12:40) 2.5 (12:10) 1.5 0.6 0.9 0 0
01-02-2021 16.1 (15:50) 7.8 (00:00) 12 8.33 (14:20) 3.89 (14:20) 0.1 0 0.1 0 0
31-01-2021 12.8 (21:20) 7.3 (00:00) 10.1 8.61 (00:50) 3.89 (00:50) 3.3 0 1.4 1.9 0

Gráficas

Temp. máximas Temp. mínimas Temp. medias Precipitaciones Rachas de viento máximas Velocidades máximas media en intervalos de 10 minutos

Datos horarios

Fecha y hora oficial Temperatura (ºC) Velocidad del viento (km/h) Dirección del viento Racha (km/h) Dirección de racha Precipitación (mm) Presión (hPa) Tendencia (hPa) Humedad (%)
2021-03-01 23:00:00 11.9 8 Este 24 Este 0 -- -- 72
2021-03-01 22:00:00 11.9 8 Este 24 Sudeste 0 -- -- 72
2021-03-01 21:00:00 11.6 10 Este 27 Este 0 -- -- 72
2021-03-01 20:00:00 11.9 8 Sudeste 32 Sudeste 0 -- -- 71
2021-03-01 19:00:00 12.4 5 Sudeste 35 Sudeste 0 -- -- 69
2021-03-01 18:00:00 13.5 7 Sudeste 33 Sudeste 0 -- -- 64
2021-03-01 17:00:00 15.3 8 Sudeste 37 Sudeste 0 -- -- 64
2021-03-01 16:00:00 15.5 9 Sudeste 38 Sudeste 0 -- -- 61
2021-03-01 15:00:00 15.5 13 Sudeste 39 Sudeste 0 -- -- 62
2021-03-01 14:00:00 15.4 10 Sudeste 42 Sudeste 0 -- -- 62
2021-03-01 13:00:00 14 14 Sudeste 45 Sudeste 0 -- -- 63
2021-03-01 12:00:00 13.4 13 Este 39 Este 0 -- -- 64
2021-03-01 11:00:00 11.8 13 Este 40 Este 0 -- -- 69
2021-03-01 10:00:00 10.4 12 Este 33 Sudeste 0 -- -- 72
2021-03-01 09:00:00 9.4 8 Este 31 Este 0 -- -- 75
2021-03-01 08:00:00 9.6 11 Este 33 Este 0 -- -- 74
2021-03-01 07:00:00 9.8 12 Sudeste 38 Sudeste 0 -- -- 72
2021-03-01 06:00:00 9.8 11 Este 34 Sudeste 0 -- -- 72
2021-03-01 05:00:00 10.1 8 Este 29 Este 0 -- -- 71
2021-03-01 04:00:00 10.3 12 Este 36 Este 0 -- -- 72
2021-03-01 03:00:00 10.9 10 Este 36 Sudeste 0 -- -- 72
2021-03-01 02:00:00 11.7 5 Este 24 Este 0 -- -- 67
2021-03-01 01:00:00 11.6 7 Sudeste 22 Sudeste 0 -- -- 67
2021-03-01 00:00:00 10.5 7 Este 14 Este 0 -- -- 69
2021-02-28 23:00:00 11 3 Este 11 Sudeste 0 -- -- 68
2021-02-28 22:00:00 10.9 4 Este 13 Este 0 -- -- 70
2021-02-28 21:00:00 11.1 4 Este 9 Este 0 -- -- 70
2021-02-28 20:00:00 11.9 0 Calma 13 Este 0 -- -- 65
2021-02-28 19:00:00 13.9 2 Sudeste 19 Sudeste 0 -- -- 58
2021-02-28 18:00:00 16.3 4 Este 24 Este 0 -- -- 53
2021-02-28 17:00:00 17.1 4 Sudeste 25 Este 0 -- -- 53
2021-02-28 16:00:00 16.6 7 Sudeste 35 Este 0 -- -- 54
2021-02-28 15:00:00 16.2 5 Sudeste 27 Este 0 -- -- 57
2021-02-28 14:00:00 15.5 6 Sudeste 36 Sudeste 0 -- -- 60
2021-02-28 13:00:00 13.5 8 Sudeste 35 Sudeste 0 -- -- 63
2021-02-28 12:00:00 12.1 12 Sudeste 35 Este 0 -- -- 66
2021-02-28 11:00:00 10.6 13 Sudeste 34 Sudeste 0 -- -- 70
2021-02-28 10:00:00 9.1 9 Este 30 Este 0 -- -- 74
2021-02-28 09:00:00 7.5 6 Sudeste 22 Sudeste 0 -- -- 75
2021-02-28 08:00:00 7.6 9 Sudeste 25 Sudeste 0 -- -- 74
2021-02-28 07:00:00 8.4 10 Sudeste 28 Sudeste 0 -- -- 72
2021-02-28 06:00:00 9.3 6 Este 23 Este 0 -- -- 70
2021-02-28 05:00:00 9.3 4 Este 14 Este 0 -- -- 70
2021-02-28 04:00:00 8.8 5 Este 10 Este 0 -- -- 74
2021-02-28 03:00:00 8.6 6 Este 12 Este 0 -- -- 80
2021-02-28 02:00:00 9.6 4 Este 8 Este 0 -- -- 75
2021-02-28 01:00:00 10 0 Calma 9 Este 0 -- -- 75
2021-02-28 00:00:00 10.9 5 Sudeste 9 Sudeste 0 -- -- 75
2021-02-27 23:00:00 11.8 2 Sudeste 6 Sudeste 0 -- -- 69
2021-02-27 22:00:00 12.8 0 Calma 6 Este 0 -- -- 63
2021-02-27 21:00:00 14.3 0 Calma 9 Este 0 -- -- 57
2021-02-27 20:00:00 15.7 2 Este 8 Sudeste 0 -- -- 54
2021-02-27 19:00:00 17.3 0 Calma 9 Sudeste 0 -- -- 52
2021-02-27 18:00:00 20.1 3 Sudeste 9 Sur 0 -- -- 46
2021-02-27 17:00:00 20.5 3 Sudeste 11 Sur 0 -- -- 45
2021-02-27 16:00:00 19.7 4 Sudeste 13 Este 0 -- -- 47
2021-02-27 15:00:00 19.4 3 Este -- -- -- -- -- 48
2021-02-27 14:00:00 18.1 0 Calma 12 Este 0 -- -- 54
2021-02-27 13:00:00 16.7 3 Sudeste 14 Este 0 -- -- 59
2021-02-27 12:00:00 15.3 3 Sudeste 12 Este 0 -- -- 64
2021-02-27 11:00:00 12.1 5 Este 11 Sudeste 0 -- -- 68
2021-02-27 10:00:00 10.3 4 Este 12 Este 0 -- -- 72
2021-02-27 09:00:00 9 5 Este 15 Este 0 -- -- 70
2021-02-27 08:00:00 8.5 6 Este 13 Este 0 -- -- 72
2021-02-27 07:00:00 9.4 5 Este 13 Este 0 -- -- 72
2021-02-27 06:00:00 9.6 5 Este 14 Este 0 -- -- 74
2021-02-27 05:00:00 10.4 5 Este 14 Este 0 -- -- 72
2021-02-27 04:00:00 10.1 5 Este 15 Nordeste 0 -- -- 75
2021-02-27 03:00:00 10.4 4 Este 13 Este 0 -- -- 75
2021-02-27 02:00:00 10.1 0 Calma 5 Este 0 -- -- 80
2021-02-27 01:00:00 11 0 Calma 7 Este 0 -- -- 80
2021-02-27 00:00:00 11.4 0 Calma 11 Nordeste 0 -- -- 76
2021-02-26 23:00:00 11.9 3 Este 14 Este 0 -- -- 75
2021-02-26 22:00:00 13.4 5 Este 19 Este 0 -- -- 68
2021-02-26 21:00:00 13.3 6 Este 16 Este 0 -- -- 70
2021-02-26 20:00:00 13.7 4 Este 15 Sudeste 0 -- -- 69
2021-02-26 19:00:00 15.3 4 Este 13 Sudeste 0 -- -- 67
2021-02-26 18:00:00 15.9 3 Este 14 Sudeste 0 -- -- 63
2021-02-26 17:00:00 16.7 5 Sudeste 15 Este 0 -- -- 61
2021-02-26 16:00:00 16.2 7 Sudeste 19 Este 0 -- -- 64
2021-02-26 15:00:00 16.1 5 Sudeste 20 Sudeste 0 -- -- 65
2021-02-26 14:00:00 14.9 7 Sudeste 22 Sudeste 0 -- -- 68
2021-02-26 13:00:00 14.1 7 Este 30 Este 0 -- -- 69
2021-02-26 12:00:00 13.4 10 Este 29 Este 0 -- -- 71
2021-02-26 11:00:00 12.1 7 Este 38 Sudeste 0 -- -- 73
2021-02-26 10:00:00 11.7 9 Sudeste 32 Sudeste 0 -- -- 74
2021-02-26 09:00:00 11.2 9 Sudeste 37 Este 0 -- -- 75
2021-02-26 08:00:00 11.1 11 Sudeste 29 Este 0 -- -- 75
2021-02-26 07:00:00 11.5 12 Sudeste 32 Sudeste 0 -- -- 74
2021-02-26 06:00:00 11.9 10 Este 29 Este 0 -- -- 74
2021-02-26 05:00:00 11.8 8 Este 26 Este 0 -- -- 74
2021-02-26 04:00:00 11.7 6 Este 19 Este 0 -- -- 74
2021-02-26 03:00:00 11.4 4 Sudeste 23 Sudeste 0 -- -- 74
2021-02-26 02:00:00 10.8 5 Sudeste 18 Este 0 -- -- 76
2021-02-26 01:00:00 10.8 5 Este 17 Este 0 -- -- 75
2021-02-26 00:00:00 10.6 5 Este 17 Este 0 -- -- 76
2021-02-25 23:00:00 11.6 3 Este 12 Este 0 -- -- 72
2021-02-25 22:00:00 11.9 2 Este 10 Este 0 -- -- 70
2021-02-25 21:00:00 12.2 4 Este 22 Este 0 -- -- 70
2021-02-25 20:00:00 12.2 6 Este 18 Este 0 -- -- 72
2021-02-25 19:00:00 12.6 6 Este 22 Este 0 -- -- 70
2021-02-25 18:00:00 13 4 Sudeste 24 Sudeste 0 -- -- 68
2021-02-25 17:00:00 13.3 5 Sudeste 24 Este 0 -- -- 68
2021-02-25 16:00:00 13.7 6 Sudeste 26 Este 0 -- -- 67
2021-02-25 15:00:00 15.1 8 Sudeste 31 Sudeste 0 -- -- 64
2021-02-25 14:00:00 14.5 8 Sudeste 29 Este 0 -- -- 64
2021-02-25 13:00:00 13.7 7 Sudeste 31 Sudeste 0 -- -- 66
2021-02-25 12:00:00 12.1 5 Sudeste 28 Sudeste 0 -- -- 73
2021-02-25 11:00:00 10.5 6 Este 24 Sudeste 0 -- -- 76
2021-02-25 10:00:00 10 4 Este 18 Este 0 -- -- 80
2021-02-25 09:00:00 9.4 9 Este 30 Este 0 -- -- 80
2021-02-25 08:00:00 9.4 9 Este 31 Sudeste 0 -- -- 80
2021-02-25 07:00:00 9.6 5 Sudeste 32 Sudeste 0 -- -- 75
2021-02-25 06:00:00 9.9 2 Sudeste 17 Sudeste 0 -- -- 75
2021-02-25 05:00:00 10 4 Sudeste 24 Sudeste 0 -- -- 74
2021-02-25 04:00:00 10.2 5 Sudeste 21 Sudeste 0 -- -- 73
2021-02-25 03:00:00 11.3 5 Sudeste 23 Sudeste 0 -- -- 70
2021-02-25 02:00:00 11.5 5 Sudeste 19 Sudeste 0 -- -- 70
2021-02-25 01:00:00 11.6 4 Sudeste 22 Este 0 -- -- 72
2021-02-25 00:00:00 12.6 5 Sudeste 23 Este 0 -- -- 69
2021-02-24 23:00:00 13.1 3 Sur 18 Sur 0 -- -- 70
2021-02-24 22:00:00 12.9 0 Calma 16 Este 0 -- -- 69
2021-02-24 21:00:00 13.5 4 Sudeste 19 Este 0 -- -- 65
2021-02-24 20:00:00 14.1 4 Sudeste 15 Sudeste 0 -- -- 63
2021-02-24 19:00:00 15.5 3 Sudeste 22 Este 0 -- -- 61
2021-02-24 18:00:00 16.7 5 Sudeste 29 Sudeste 0 -- -- 55
2021-02-24 17:00:00 17.4 6 Sudeste 28 Este 0 -- -- 53
2021-02-24 16:00:00 17.7 11 Sudeste 36 Este 0 -- -- 52
2021-02-24 15:00:00 17.2 9 Sudeste 44 Este 0 -- -- 55
2021-02-24 14:00:00 16 9 Sudeste 39 Sudeste 0 -- -- 58
2021-02-24 13:00:00 15.2 14 Sudeste 45 Sudeste 0 -- -- 62
2021-02-24 12:00:00 12.3 11 Sudeste 43 Este 0 -- -- 69
2021-02-24 11:00:00 10.1 10 Sudeste 39 Este 0 -- -- 76
2021-02-24 10:00:00 8.5 9 Sudeste 32 Sudeste 0 -- -- 81
2021-02-24 09:00:00 7.3 8 Sudeste 37 Este 0 -- -- 84
2021-02-24 08:00:00 7.2 9 Sudeste 30 Sudeste 0 -- -- 82
2021-02-24 07:00:00 7.6 6 Sudeste 28 Este 0 -- -- 80
2021-02-24 06:00:00 7.4 8 Sudeste 30 Este 0 -- -- 80
2021-02-24 05:00:00 8.5 7 Sudeste 27 Este 0 -- -- 74
2021-02-24 04:00:00 8.6 8 Sudeste 24 Sudeste 0 -- -- 74
2021-02-24 03:00:00 8.7 8 Sudeste 24 Este 0 -- -- 73
2021-02-24 02:00:00 9.1 7 Sudeste 22 Este 0 -- -- 71
2021-02-24 01:00:00 9.8 7 Sudeste 21 Sudeste 0 -- -- 67
2021-02-24 00:00:00 9.9 6 Sudeste 24 Este 0 -- -- 66
2021-02-23 23:00:00 10.8 8 Sudeste 28 Sudeste 0 -- -- 61
2021-02-23 22:00:00 10.9 4 Sudeste 18 Sudeste 0 -- -- 59
2021-02-23 21:00:00 11.3 4 Sudeste 18 Sudeste 0 -- -- 57
2021-02-23 20:00:00 12.1 4 Sudeste 17 Sudeste 0 -- -- 54
2021-02-23 19:00:00 13.9 4 Sudeste 23 Este 0 -- -- 46
2021-02-23 18:00:00 16.2 6 Sudeste 24 Sudeste 0 -- -- 41
2021-02-23 17:00:00 17 5 Sudeste 22 Sudeste 0 -- -- 41
2021-02-23 16:00:00 16.8 5 Sudeste 29 Este 0 -- -- 42
2021-02-23 15:00:00 16.3 6 Sudeste 31 Este 0 -- -- 41
2021-02-23 14:00:00 15.5 10 Sudeste 31 Este 0 -- -- 49
2021-02-23 13:00:00 13.1 7 Sudeste 32 Sudeste 0 -- -- 59
2021-02-23 12:00:00 11.1 7 Este 30 Este 0 -- -- 61
2021-02-23 11:00:00 8.1 8 Este 21 Este 0 -- -- 65
2021-02-23 10:00:00 5.6 7 Este 19 Este 0 -- -- 72
2021-02-23 09:00:00 4.5 9 Sudeste 24 Sudeste 0 -- -- 72
2021-02-23 08:00:00 4.5 8 Este 20 Este 0 -- -- 74
2021-02-23 07:00:00 4.1 5 Este 15 Sudeste 0 -- -- 75
2021-02-23 06:00:00 4.6 6 Este 16 Este 0 -- -- 72
2021-02-23 05:00:00 4.8 6 Este 16 Este 0 -- -- 71
2021-02-23 04:00:00 5.3 6 Este 13 Este 0 -- -- 69
2021-02-23 03:00:00 6 5 Este 17 Este 0 -- -- 66
2021-02-23 02:00:00 6.1 10 Nordeste 23 Nordeste 0 -- -- 67
2021-02-23 01:00:00 6.6 5 Este 14 Este 0 -- -- 67
2021-02-23 00:00:00 7.1 7 Este 17 Este 0 -- -- 69
2021-02-22 23:00:00 7.4 4 Este 13 Este 0 -- -- 68
2021-02-22 22:00:00 8 5 Este 10 Este 0 -- -- 66
2021-02-22 21:00:00 8.9 0 Calma -- -- 0 -- -- 62
2021-02-22 20:00:00 9.7 0 Calma 11 Oeste 0 -- -- 57
2021-02-22 19:00:00 11.5 6 Oeste 17 Oeste 0 -- -- 51
2021-02-22 18:00:00 13.7 6 Oeste 21 Oeste 0 -- -- 47
2021-02-22 17:00:00 14.6 4 Noroeste 18 Sudoeste 0 -- -- 47
2021-02-22 16:00:00 13.7 7 Oeste 21 Oeste 0 -- -- 48
2021-02-22 15:00:00 13.1 8 Oeste 23 Oeste 0 -- -- 53
2021-02-22 14:00:00 12.4 5 Noroeste 22 Noroeste 0 -- -- 51
2021-02-22 13:00:00 11.5 8 Oeste 19 Noroeste 0 -- -- 53
2021-02-22 12:00:00 10.2 3 Noroeste 18 Noroeste 0 -- -- 61
2021-02-22 11:00:00 7.3 4 Oeste 17 Norte 0 -- -- 80
2021-02-22 10:00:00 5 4 Noroeste 16 Oeste 0 -- -- 81
2021-02-22 09:00:00 3.9 5 Noroeste 15 Noroeste 0 -- -- 86
2021-02-22 08:00:00 3.6 4 Noroeste 11 Noroeste 0 -- -- 85
2021-02-22 07:00:00 3.6 2 Noroeste 10 Oeste 0 -- -- 85
2021-02-22 06:00:00 3.9 4 Noroeste 11 Oeste 0 -- -- 82
2021-02-22 05:00:00 4.4 4 Noroeste 13 Noroeste 0 -- -- 81
2021-02-22 04:00:00 5 5 Noroeste 14 Noroeste 0 -- -- 81
2021-02-22 03:00:00 5.1 3 Noroeste 15 Noroeste 0 -- -- 83
2021-02-22 02:00:00 5.7 3 Noroeste 15 Noroeste 0 -- -- 82
2021-02-22 01:00:00 6.1 6 Oeste 18 Oeste 0 -- -- 82
2021-02-22 00:00:00 6.4 3 Noroeste 10 Oeste 0 -- -- 83
2021-02-21 23:00:00 6 4 Oeste 12 Noroeste 0 -- -- 87
2021-02-21 22:00:00 7 4 Noroeste 13 Noroeste 0 -- -- 82
2021-02-21 21:00:00 7.7 3 Noroeste 18 Norte 0 -- -- 75
2021-02-21 20:00:00 7.7 5 Norte 18 Nordeste 0 -- -- 75
2021-02-21 19:00:00 8 5 Norte 23 Norte 0 -- -- 74
2021-02-21 18:00:00 7.5 7 Norte 26 Norte 0 -- -- 76
2021-02-21 17:00:00 7.5 8 Norte 26 Norte 0.1 -- -- 81
2021-02-21 16:00:00 7.4 5 Norte 18 Oeste 0.1 -- -- 87
2021-02-21 15:00:00 8 8 Oeste 29 Nordeste 0.9 -- -- 89
2021-02-21 14:00:00 7.2 13 Nordeste 30 Nordeste 1.6 -- -- 90
2021-02-21 13:00:00 7.3 7 Norte 19 Nordeste 1.7 -- -- 91
2021-02-21 12:00:00 6.8 8 Norte 26 Norte 1.5 -- -- 94
2021-02-21 11:00:00 7.5 9 Oeste 21 Oeste 2.9 -- -- 94
2021-02-21 10:00:00 8.3 5 Oeste 24 Oeste 2 -- -- 90
2021-02-21 09:00:00 10.2 4 Sur 14 Sudeste 1.9 -- -- 89
2021-02-21 08:00:00 11.2 4 Sur 28 Sur 1.2 -- -- 80
2021-02-21 07:00:00 13.4 6 Sudeste 37 Sudeste 0 -- -- 55
2021-02-21 06:00:00 13.3 6 Sudeste 30 Sudeste 0 -- -- 48
2021-02-21 05:00:00 13.6 5 Sudeste 30 Sur 0 -- -- 47
2021-02-21 04:00:00 14.7 7 Sudeste 31 Sudeste 0 -- -- 46
2021-02-21 03:00:00 15.2 10 Sudeste 33 Sudeste 0 -- -- 46
2021-02-21 02:00:00 14.9 9 Sudeste 33 Sudeste 0 -- -- 46
2021-02-21 01:00:00 14.5 9 Sudeste 31 Este 0 -- -- 46
2021-02-21 00:00:00 14.5 10 Sudeste 30 Sudeste 0 -- -- 44
2021-02-20 23:00:00 14.6 9 Sudeste 31 Este 0 -- -- 42
2021-02-20 22:00:00 15.1 7 Sudeste 24 Este 0 -- -- 41
2021-02-20 21:00:00 14.2 5 Sudeste 25 Sudeste 0 -- -- 42
2021-02-20 20:00:00 15.1 5 Sudeste 24 Sudeste 0 -- -- 42
2021-02-20 19:00:00 15.2 6 Sudeste 31 Sudeste 0 -- -- 42
2021-02-20 18:00:00 15.5 5 Sudeste 36 Sur 0 -- -- 45
2021-02-20 17:00:00 15.5 6 Sur 36 Sur 0 -- -- 45
2021-02-20 16:00:00 15.4 6 Sudeste 32 Sur 0 -- -- 48
2021-02-20 15:00:00 14.8 7 Sudeste 28 Sudeste 0 -- -- 51
2021-02-20 14:00:00 13.9 5 Sudeste 27 Sur 0 -- -- 57
2021-02-20 13:00:00 14.1 5 Sudeste 32 Este 0 -- -- 62
2021-02-20 12:00:00 13 7 Sudeste 28 Este 0 -- -- 68
2021-02-20 11:00:00 11.8 4 Sudeste 26 Este 0 -- -- 71
2021-02-20 10:00:00 11.5 3 Sudeste 26 Sur 0 -- -- 71
2021-02-20 09:00:00 11.3 7 Sur 20 Sur 0 -- -- 72
2021-02-20 08:00:00 10.4 3 Sudeste 21 Este 0 -- -- 72
2021-02-20 07:00:00 10 3 Sudeste 21 Este 0 -- -- 71
2021-02-20 06:00:00 10.8 3 Sudeste 23 Sur 0 -- -- 72
2021-02-20 05:00:00 10.5 2 Sudeste 17 Sur 0 -- -- 75
2021-02-20 04:00:00 9.8 4 Este 18 Este 0 -- -- 75
2021-02-20 03:00:00 10.5 4 Sudeste 18 Sur 0 -- -- 70
2021-02-20 02:00:00 10.5 2 Sudeste 14 Sudeste 0 -- -- 73
2021-02-20 01:00:00 10.5 3 Sudeste 16 Sudeste 0 -- -- 75
2021-02-20 00:00:00 10.4 5 Este 13 Este 0 -- -- 73
2021-02-19 23:00:00 10.8 3 Este 12 Este 0 -- -- 70
2021-02-19 22:00:00 11.3 3 Este 12 Este 0 -- -- 65
2021-02-19 21:00:00 11.9 3 Este 7 Sudeste 0 -- -- 64
2021-02-19 20:00:00 12.4 2 Sur 12 Sur 0 -- -- 59
2021-02-19 19:00:00 14.1 2 Sudeste 16 Sudoeste 0 -- -- 55
2021-02-19 18:00:00 15.9 5 Sur 16 Sur 0 -- -- 51
2021-02-19 17:00:00 16.7 3 Sur 18 Sudeste 0 -- -- 48
2021-02-19 16:00:00 17.7 5 Sur 19 Sur 0 -- -- 47
2021-02-19 15:00:00 17.9 5 Sudeste 21 Sudeste 0 -- -- 50
2021-02-19 14:00:00 17.2 7 Sudeste 27 Sudeste 0 -- -- 51
2021-02-19 13:00:00 15.7 6 Sudeste 29 Sudeste 0 -- -- 59
2021-02-19 12:00:00 13.4 7 Sudeste 29 Sudeste 0 -- -- 65
2021-02-19 11:00:00 11.3 7 Sudeste 21 Sudeste 0 -- -- 71
2021-02-19 10:00:00 8.6 4 Nordeste 20 Este 0 -- -- 81
2021-02-19 09:00:00 8.4 7 Este 21 Sudeste 0 -- -- 82
2021-02-19 08:00:00 8.2 2 Sudeste 12 Este 0 -- -- 80
2021-02-19 07:00:00 8.6 4 Este 12 Este 0 -- -- 75
2021-02-19 06:00:00 9.6 5 Este 13 Este 0 -- -- 71
2021-02-19 05:00:00 9.9 5 Este 12 Nordeste 0 -- -- 69
2021-02-19 04:00:00 11 5 Este 11 Este 0 -- -- 65
2021-02-19 03:00:00 10.7 4 Este 12 Este 0 -- -- 64
2021-02-19 02:00:00 10.7 5 Nordeste 7 Este 0 -- -- 64
2021-02-19 01:00:00 11.1 2 Este 8 Este 0 -- -- 63
2021-02-19 00:00:00 11.6 2 Este 9 Este 0 -- -- 61
2021-02-18 23:00:00 12.3 2 Este 9 Este 0 -- -- 60
2021-02-18 22:00:00 12.6 3 Este 11 Este 0 -- -- 59
2021-02-18 21:00:00 13 3 Este 9 Sur 0 -- -- 60
2021-02-18 20:00:00 13.4 2 Sur 7 Sur 0 -- -- 59
2021-02-18 19:00:00 14.9 2 Sur 14 Sudoeste 0 -- -- 55
2021-02-18 18:00:00 16.6 4 Sur 14 Sudoeste 0 -- -- 52
2021-02-18 17:00:00 16.9 3 Sur 15 Sudoeste 0 -- -- 54
2021-02-18 16:00:00 16.4 5 Oeste 17 Oeste 0 -- -- 59
2021-02-18 15:00:00 17 6 Sudoeste 17 Sudoeste 0 -- -- 59
2021-02-18 14:00:00 15.6 0 Calma 13 Sur 0 -- -- 66
2021-02-18 13:00:00 14.6 2 Sur 9 Sur 0 -- -- 68
2021-02-18 12:00:00 12.9 3 Sudoeste 12 Sur 0 -- -- 76
2021-02-18 11:00:00 11.7 3 Sur 15 Este 0 -- -- 85
2021-02-18 10:00:00 9.5 3 Este 11 Este 0 -- -- 91
2021-02-18 09:00:00 8.4 2 Nordeste 10 Este 0 -- -- 92
2021-02-18 08:00:00 8.2 0 Calma 8 Este 0 -- -- 93
2021-02-18 07:00:00 8.8 0 Calma 6 Nordeste 0 -- -- 93
2021-02-18 06:00:00 9.4 0 Calma 3 Sudeste 0 -- -- 92
2021-02-18 05:00:00 9.9 0 Calma 5 Oeste 0 -- -- 90
2021-02-18 04:00:00 10 0 Calma 5 Sudeste 0 -- -- 84
2021-02-18 03:00:00 10.7 0 Calma 4 Este 0 -- -- 76
2021-02-18 02:00:00 11 0 Calma 6 Sudeste 0 -- -- 76
2021-02-18 01:00:00 11.4 3 Este 10 Este 0 -- -- 74
2021-02-18 00:00:00 11.7 4 Este 12 Este 0 -- -- 74
2021-02-17 23:00:00 12.2 4 Este 12 Este 0 -- -- 74
2021-02-17 22:00:00 13.4 3 Este 14 Este 0 -- -- 71
2021-02-17 21:00:00 13.2 3 Este 19 Este 0 -- -- 72
2021-02-17 20:00:00 13.7 3 Nordeste 18 Sudeste 0 -- -- 72
2021-02-17 19:00:00 15.6 7 Este 18 Este 0 -- -- 66
2021-02-17 18:00:00 17.6 3 Sudeste 10 Sudeste 0 -- -- 59
2021-02-17 17:00:00 18.3 3 Sudeste 14 Este 0 -- -- 59
2021-02-17 16:00:00 17.9 4 Sur 16 Sur 0 -- -- 59
2021-02-17 15:00:00 17.2 5 Sudeste 17 Sur 0 -- -- 62
2021-02-17 14:00:00 16.4 6 Sur 19 Sur 0 -- -- 65
2021-02-17 13:00:00 15.7 4 Sudeste 14 Sudeste 0 -- -- 72
2021-02-17 12:00:00 13.1 3 Este 15 Este 0 -- -- 76
2021-02-17 11:00:00 11.6 5 Este 15 Este 0 -- -- 81
2021-02-17 10:00:00 11 4 Este 14 Este 0 -- -- 84
2021-02-17 09:00:00 10.6 4 Este 11 Este 0 -- -- 84
2021-02-17 08:00:00 10.2 5 Este 10 Este 0 -- -- 85
2021-02-17 07:00:00 10.2 2 Sudeste 9 Este 0 -- -- 83
2021-02-17 06:00:00 10.1 4 Este 12 Este 0 -- -- 84
2021-02-17 05:00:00 10 5 Este 10 Este 0 -- -- 82
2021-02-17 04:00:00 10.2 2 Este 9 Este 0 -- -- 81
2021-02-17 03:00:00 10.7 4 Nordeste 10 Este 0 -- -- 75
2021-02-17 02:00:00 11.1 4 Este 7 Este 0 -- -- 76
2021-02-17 01:00:00 11.1 0 Calma 7 Este 0 -- -- 75
2021-02-17 00:00:00 11.3 4 Este 9 Este 0 -- -- 74
2021-02-16 23:00:00 11.6 3 Este 10 Este 0 -- -- 73
2021-02-16 22:00:00 12 4 Este 9 Este 0 -- -- 73
2021-02-16 21:00:00 12.5 2 Este 8 Este 0 -- -- 71
2021-02-16 20:00:00 12.6 3 Este 8 Este 0 -- -- 70
2021-02-16 19:00:00 13.6 2 Este 7 Sudeste 0 -- -- 66
2021-02-16 18:00:00 15.5 0 Calma 9 Oeste 0 -- -- 62
2021-02-16 17:00:00 15.9 2 Oeste 7 Oeste 0 -- -- 59
2021-02-16 16:00:00 15.8 2 Sudeste 12 Sur 0 -- -- 57
2021-02-16 15:00:00 16.6 3 Sudeste 16 Sudeste 0 -- -- 55
2021-02-16 14:00:00 15.8 6 Sudeste 20 Este 0 -- -- 56
2021-02-16 13:00:00 14.1 4 Sudeste 15 Sudeste 0 -- -- 64
2021-02-16 12:00:00 11.9 4 Este 18 Sudeste 0 -- -- 72
2021-02-16 11:00:00 10.3 7 Este 23 Este 0 -- -- 76
2021-02-16 10:00:00 8.2 6 Este 15 Este 0 -- -- 82
2021-02-16 09:00:00 8 4 Nordeste 22 Este 0 -- -- 80
2021-02-16 08:00:00 8.4 5 Nordeste 30 Este 0 -- -- 80
2021-02-16 07:00:00 8.6 6 Este 31 Sudeste 0 -- -- 76
2021-02-16 06:00:00 9.9 7 Este 32 Sudeste 0 -- -- 74
2021-02-16 05:00:00 10 3 Sur 27 Este 0 -- -- 73
2021-02-16 04:00:00 10.8 6 Sudeste 39 Sudeste 0 -- -- 71
2021-02-16 03:00:00 11.4 9 Sudeste 36 Este 0 -- -- 69
2021-02-16 02:00:00 11.9 8 Sudeste 32 Este 0 -- -- 67
2021-02-16 01:00:00 12 8 Sudeste 28 Este 0 -- -- 69
2021-02-16 00:00:00 12 8 Sudeste 41 Sudeste 0 -- -- 68
2021-02-15 23:00:00 13.2 10 Sudeste 37 Sudeste 0 -- -- 66
2021-02-15 22:00:00 12.1 12 Este 34 Este 0 -- -- 72
2021-02-15 21:00:00 13 8 Este 33 Este 0 -- -- 70
2021-02-15 20:00:00 13.1 11 Este 34 Este 0 -- -- 70
2021-02-15 19:00:00 14 9 Este 31 Este 0 -- -- 67
2021-02-15 18:00:00 15.9 7 Sudeste 30 Este 0 -- -- 61
2021-02-15 17:00:00 17.1 8 Sudeste 30 Sudeste 0 -- -- 59
2021-02-15 16:00:00 16.5 11 Sudeste 36 Este 0 -- -- 60
2021-02-15 15:00:00 16.1 12 Sudeste 35 Sudeste 0 -- -- 61
2021-02-15 14:00:00 15.8 12 Sudeste 39 Sudeste 0 -- -- 63
2021-02-15 13:00:00 14 11 Sudeste 40 Sudeste 0 -- -- 67
2021-02-15 12:00:00 12.4 12 Sudeste 32 Este 0 -- -- 71
2021-02-15 11:00:00 10.9 8 Sudeste 29 Sudeste 0 -- -- 75
2021-02-15 10:00:00 9.4 8 Sudeste 33 Este 0 -- -- 82
2021-02-15 09:00:00 8.3 13 Este 34 Sudeste 0 -- -- 83
2021-02-15 08:00:00 8.1 16 Sudeste 38 Este 0 -- -- 83
2021-02-15 07:00:00 8.6 13 Este 32 Este 0 -- -- 81
2021-02-15 06:00:00 9.3 9 Este 32 Este 0 -- -- 76
2021-02-15 05:00:00 9.9 13 Sudeste 32 Sudeste 0 -- -- 74
2021-02-15 04:00:00 10.3 9 Este 25 Sudeste 0 -- -- 72
2021-02-15 03:00:00 10.5 9 Sudeste 26 Este 0 -- -- 73
2021-02-15 02:00:00 10.2 8 Este 21 Este 0 -- -- 74
2021-02-15 01:00:00 10.6 8 Este 16 Este 0 -- -- 73
2021-02-15 00:00:00 11.3 5 Este 17 Nordeste 0 -- -- 67
2021-02-14 23:00:00 12.4 6 Este 23 Este 0 -- -- 62
2021-02-14 22:00:00 13.4 13 Este 25 Este 0 -- -- 59
2021-02-14 21:00:00 13.8 5 Este 15 Este 0 -- -- 59
2021-02-14 20:00:00 14.1 6 Este 18 Este 0 -- -- 59
2021-02-14 19:00:00 15.7 4 Sudeste 15 Sudeste 0 -- -- 54
2021-02-14 18:00:00 17.7 5 Sudeste 24 Este 0 -- -- 49
2021-02-14 17:00:00 18.4 5 Sudeste 24 Este 0 -- -- 46
2021-02-14 16:00:00 18.1 6 Sudeste 30 Sudeste 0 -- -- 45
2021-02-14 15:00:00 17.7 5 Sudeste 26 Este 0 -- -- 51
2021-02-14 14:00:00 17 8 Sudeste 27 Este 0 -- -- 55
2021-02-14 13:00:00 15.7 8 Sudeste 29 Sudeste 0 -- -- 57
2021-02-14 12:00:00 13.2 7 Este 22 Este 0 -- -- 72
2021-02-14 11:00:00 10.5 7 Este 21 Este 0 -- -- 80
2021-02-14 10:00:00 8.6 8 Este 20 Sudeste 0 -- -- 83
2021-02-14 09:00:00 7 5 Este 12 Este 0 -- -- 86
2021-02-14 08:00:00 7.1 5 Este 10 Este 0 -- -- 85
2021-02-14 07:00:00 7.4 4 Este 12 Este 0 -- -- 83
2021-02-14 06:00:00 7.6 4 Este 11 Este 0 -- -- 85
2021-02-14 05:00:00 7.9 4 Este 14 Este 0 -- -- 85
2021-02-14 04:00:00 8.6 3 Este 9 Este 0 -- -- 86
2021-02-14 03:00:00 8.5 4 Este 11 Este 0 -- -- 83
2021-02-14 02:00:00 8.9 4 Este 9 Este 0 -- -- 84
2021-02-14 01:00:00 9.8 3 Este 7 Este 0 -- -- 81
2021-02-14 00:00:00 10.2 3 Sudeste 11 Nordeste 0 -- -- 80
2021-02-13 23:00:00 10.8 3 Nordeste 13 Noroeste 0 -- -- 74
2021-02-13 22:00:00 11.5 4 Oeste 8 Oeste 0 -- -- 72
2021-02-13 21:00:00 12.8 2 Este 14 Oeste 0 -- -- 66
2021-02-13 20:00:00 13.4 5 Noroeste 13 Oeste 0 -- -- 64
2021-02-13 19:00:00 14.5 5 Oeste 18 Oeste 0 -- -- 61
2021-02-13 18:00:00 16.5 7 Noroeste 24 Noroeste 0 -- -- 55
2021-02-13 17:00:00 17.4 7 Oeste 18 Oeste 0 -- -- 51
2021-02-13 16:00:00 17.4 6 Oeste 16 Oeste 0 -- -- 54
2021-02-13 15:00:00 16.3 5 Oeste 17 Oeste 0 -- -- 60
2021-02-13 14:00:00 15.2 5 Oeste 16 Oeste 0 -- -- 65
2021-02-13 13:00:00 12.9 6 Oeste 19 Noroeste 0 -- -- 74
2021-02-13 08:00:00 5.7 0 Calma 9 Sudeste 0 -- -- 84
2021-02-13 07:00:00 6.3 5 Este 13 Este 0 -- -- 81
2021-02-13 06:00:00 6.2 3 Este 7 Este 0 -- -- 89
2021-02-13 05:00:00 7.2 0 Calma 8 Oeste 0 -- -- 87
2021-02-13 04:00:00 7.8 3 Oeste 9 Oeste 0 -- -- 85
2021-02-13 03:00:00 8.4 0 Calma 7 Sudoeste 0 -- -- 83
2021-02-13 02:00:00 8.9 0 Calma 11 Oeste 0 -- -- 81
2021-02-13 01:00:00 9.3 5 Oeste 13 Oeste 0 -- -- 76
2021-02-13 00:00:00 10 4 Noroeste 14 Oeste 0 -- -- 75
2021-02-12 23:00:00 10.8 4 Noroeste 12 Noroeste 0 -- -- 74
2021-02-12 22:00:00 10.4 3 Noroeste 9 Noroeste 0 -- -- 74
2021-02-12 21:00:00 11.3 3 Oeste 7 Sudoeste 0 -- -- 67
2021-02-12 20:00:00 12.3 2 Oeste 6 Oeste 0 -- -- 63
2021-02-12 19:00:00 13.8 0 Calma 13 Noroeste 0 -- -- 56
2021-02-12 18:00:00 16 4 Norte 15 Noroeste 0 -- -- 51
2021-02-12 17:00:00 17.2 5 Noroeste 21 Noroeste 0 -- -- 48
2021-02-12 16:00:00 16.3 5 Noroeste 20 Noroeste 0 -- -- 50
2021-02-12 15:00:00 15.5 5 Norte 19 Noroeste 0 -- -- 56
2021-02-12 14:00:00 13.9 6 Noroeste 25 Oeste 0 -- -- 62
2021-02-12 13:00:00 15.1 9 Oeste 26 Noroeste 0 -- -- 66
2021-02-12 12:00:00 12.6 12 Oeste 27 Oeste 0 -- -- 80
2021-02-12 11:00:00 10.9 7 Oeste 19 Oeste 0 -- -- 96
2021-02-12 10:00:00 9.7 6 Noroeste 21 Oeste 0 -- -- 96
2021-02-12 09:00:00 9.7 4 Noroeste 19 Oeste 0 -- -- 96
2021-02-12 08:00:00 9.9 5 Oeste 21 Oeste 0 -- -- 95
2021-02-12 07:00:00 10.3 7 Oeste 21 Oeste 0 -- -- 95
2021-02-12 06:00:00 10.7 9 Oeste 19 Oeste 0 -- -- 95
2021-02-12 05:00:00 11.5 10 Oeste 28 Oeste 0.1 -- -- 95
2021-02-12 04:00:00 11.8 11 Oeste 39 Sudoeste 0.4 -- -- 94
2021-02-12 03:00:00 12.1 7 Oeste 23 Oeste 0.7 -- -- 94
2021-02-12 02:00:00 12.3 5 Sudoeste 14 Sur 2.7 -- -- 92
2021-02-12 01:00:00 12.6 0 Calma 14 Sur 0 -- -- 90
2021-02-12 00:00:00 12.8 3 Sur 15 Sur 0 -- -- 90
2021-02-11 23:00:00 13 0 Calma 13 Sur 0 -- -- 89
2021-02-11 22:00:00 13 3 Sudeste 10 Este 0 -- -- 90
2021-02-11 21:00:00 13.2 0 Calma 14 Sudeste 0 -- -- 90
2021-02-11 20:00:00 13.1 2 Este 9 Sudeste 0 -- -- 89
2021-02-11 19:00:00 13.5 0 Calma 9 Sur 0.1 -- -- 87
2021-02-11 18:00:00 15.3 5 Sur 18 Sur 0 -- -- 80
2021-02-11 17:00:00 16.1 3 Sur 13 Sur 0 -- -- 76
2021-02-11 16:00:00 15.6 3 Sur 14 Sur 0 -- -- 83
2021-02-11 15:00:00 15.3 4 Sur 11 Sur 0.3 -- -- 91
2021-02-11 14:00:00 13.3 0 Calma 8 Sudoeste 0.4 -- -- 94
2021-02-11 13:00:00 12.3 0 Calma 10 Sur 0.3 -- -- 95
2021-02-11 12:00:00 12.2 0 Calma 11 Sur 0.1 -- -- 96
2021-02-11 11:00:00 12 0 Calma 6 Sur 0.1 -- -- 96
2021-02-11 10:00:00 11.4 0 Calma 4 Nordeste 0.2 -- -- 96
2021-02-11 09:00:00 11.1 2 Este 7 Nordeste 0.3 -- -- 96
2021-02-11 08:00:00 10.4 4 Este 8 Este 0.3 -- -- 96
2021-02-11 07:00:00 10.2 6 Este 10 Este 0.2 -- -- 96
2021-02-11 06:00:00 10.1 4 Este 12 Este 0.4 -- -- 95
2021-02-11 05:00:00 10.1 4 Este 14 Este 0.2 -- -- 95
2021-02-11 04:00:00 10.1 4 Este 13 Este 0.2 -- -- 93
2021-02-11 03:00:00 10.1 4 Este 14 Nordeste 0 -- -- 92
2021-02-11 02:00:00 10.2 4 Este 11 Este 0.2 -- -- 92
2021-02-11 01:00:00 10.5 0 Calma 9 Este 0.2 -- -- 90
2021-02-11 00:00:00 11 0 Calma 5 Oeste 0 -- -- 83
2021-02-10 23:00:00 11.5 0 Calma 3 Oeste 0 -- -- 74
2021-02-10 22:00:00 11.6 0 Calma 6 Noroeste 0 -- -- 72
2021-02-10 21:00:00 11.7 2 Noroeste 12 Oeste 0 -- -- 71
2021-02-10 20:00:00 11.8 5 Oeste 18 Oeste 0 -- -- 70
2021-02-10 19:00:00 12.2 4 Oeste 12 Oeste 0 -- -- 66
2021-02-10 18:00:00 12.9 3 Oeste 16 Sudoeste 0 -- -- 61
2021-02-10 17:00:00 13.6 6 Oeste 21 Sudoeste 0 -- -- 57
2021-02-10 16:00:00 15.4 9 Oeste 23 Oeste 0 -- -- 54
2021-02-10 15:00:00 15.2 9 Oeste 22 Sudoeste 0 -- -- 55
2021-02-10 14:00:00 13.7 9 Oeste 25 Oeste 0 -- -- 57
2021-02-10 13:00:00 13.3 8 Oeste 22 Oeste 0 -- -- 64
2021-02-10 12:00:00 11.5 8 Oeste 22 Oeste 0 -- -- 76
2021-02-10 11:00:00 9.6 8 Oeste 21 Oeste 0 -- -- 84
2021-02-10 10:00:00 8 5 Noroeste 15 Noroeste 0 -- -- 90
2021-02-10 09:00:00 7.6 4 Noroeste 16 Oeste 0.1 -- -- 90
2021-02-10 08:00:00 7.3 2 Noroeste 18 Oeste 0 -- -- 86
2021-02-10 07:00:00 8.2 5 Noroeste 22 Noroeste 0 -- -- 89
2021-02-10 06:00:00 8.5 9 Oeste 25 Oeste 0.1 -- -- 93
2021-02-10 05:00:00 9.1 11 Oeste 40 Oeste 0.2 -- -- 92
2021-02-10 04:00:00 9.8 18 Oeste 48 Oeste 0.1 -- -- 86
2021-02-10 03:00:00 9.7 19 Sudoeste 49 Oeste 0 -- -- 87
2021-02-10 02:00:00 9.4 19 Oeste 51 Sudoeste 0 -- -- 86
2021-02-10 01:00:00 8.9 22 Oeste 46 Oeste 0.5 -- -- 91
2021-02-10 00:00:00 9.6 16 Oeste 48 Oeste 0 -- -- 82
2021-02-09 23:00:00 9.8 16 Oeste 40 Oeste 0 -- -- 80
2021-02-09 22:00:00 9.7 18 Oeste 38 Oeste 0 -- -- 80
2021-02-09 21:00:00 9.2 15 Oeste 32 Sudoeste 0 -- -- 83
2021-02-09 20:00:00 9.8 14 Oeste 51 Sudoeste 0.4 -- -- 86
2021-02-09 19:00:00 11.2 17 Oeste 45 Oeste 0 -- -- 74
2021-02-09 18:00:00 11.9 20 Oeste 41 Sudoeste 0 -- -- 70
2021-02-09 17:00:00 12.1 18 Oeste 41 Oeste 0 -- -- 73
2021-02-09 16:00:00 11.7 15 Oeste 36 Oeste 0 -- -- 82
2021-02-09 15:00:00 9.3 9 Oeste 24 Oeste 1.4 -- -- 94
2021-02-09 14:00:00 9.7 11 Oeste 53 Oeste 3.6 -- -- 93
2021-02-09 13:00:00 10.4 25 Oeste 54 Sudoeste 1.8 -- -- 92
2021-02-09 12:00:00 10.2 12 Sudoeste 33 Oeste 0.9 -- -- 92
2021-02-09 11:00:00 9.8 5 Sur 26 Sudoeste 3.1 -- -- 93
2021-02-09 10:00:00 9.7 3 Sudoeste 22 Oeste 1.3 -- -- 93
2021-02-09 09:00:00 9.5 4 Sudoeste 21 Sudoeste 2.5 -- -- 93
2021-02-09 08:00:00 9.6 5 Sudoeste 18 Sudoeste 1.2 -- -- 93
2021-02-09 07:00:00 9.3 4 Sudoeste 21 Sudoeste 1.7 -- -- 94
2021-02-09 06:00:00 9.1 2 Sudoeste 19 Sudeste 1.2 -- -- 94
2021-02-09 05:00:00 8.8 4 Sur 15 Sudoeste 0.7 -- -- 92
2021-02-09 04:00:00 8.6 4 Sudoeste 12 Sur 0.8 -- -- 91
2021-02-09 03:00:00 8.4 0 Calma 9 Sudoeste 0.3 -- -- 90
2021-02-09 02:00:00 8.8 4 Sudoeste 14 Sudoeste 0 -- -- 83
2021-02-09 01:00:00 9.1 5 Sudoeste 23 Sudoeste 0 -- -- 82
2021-02-09 00:00:00 8.9 5 Oeste 22 Oeste 0 -- -- 76
2021-02-08 23:00:00 8.6 9 Oeste 27 Sudoeste 0 -- -- 74
2021-02-08 22:00:00 8.9 13 Oeste 32 Sudoeste 0 -- -- 71
2021-02-08 21:00:00 9.5 12 Oeste 31 Sudoeste 0 -- -- 64
2021-02-08 20:00:00 9.7 12 Oeste 30 Oeste 0 -- -- 64
2021-02-08 19:00:00 10.3 14 Oeste 31 Oeste 0 -- -- 62
2021-02-08 18:00:00 11.2 15 Oeste 37 Oeste 0 -- -- 60
2021-02-08 17:00:00 12.1 16 Oeste 39 Oeste 0 -- -- 60
2021-02-08 16:00:00 12.1 18 Oeste 38 Sudoeste 0.2 -- -- 66
2021-02-08 15:00:00 11.7 8 Oeste 23 Sudoeste 0 -- -- 70
2021-02-08 14:00:00 11.9 9 Oeste 35 Oeste 0 -- -- 73
2021-02-08 13:00:00 10.9 12 Oeste 27 Noroeste 0 -- -- 78
2021-02-08 12:00:00 9.3 7 Oeste 18 Oeste 0.1 -- -- 93
2021-02-08 11:00:00 7.8 7 Oeste 25 Sudoeste 1.9 -- -- 94
2021-02-08 10:00:00 8.1 12 Oeste 32 Oeste 1 -- -- 93
2021-02-08 09:00:00 7.8 9 Oeste 24 Oeste 0 -- -- 92
2021-02-08 08:00:00 7.3 11 Oeste 28 Oeste 0 -- -- 90
2021-02-08 07:00:00 7.5 6 Oeste 20 Oeste 0 -- -- 94
2021-02-08 06:00:00 8.2 9 Oeste 27 Oeste 0 -- -- 95
2021-02-08 05:00:00 9.2 14 Oeste 36 Oeste 0.1 -- -- 95
2021-02-08 04:00:00 9.6 10 Oeste 23 Oeste 2.6 -- -- 96
2021-02-08 03:00:00 8.9 3 Este 13 Sur 4.4 -- -- 96
2021-02-08 02:00:00 8.1 2 Sudeste 16 Este 4.2 -- -- 96
2021-02-08 01:00:00 7.7 6 Este 19 Sudeste 5.3 -- -- 96
2021-02-08 00:00:00 7.2 5 Este 20 Este 1.3 -- -- 96
2021-02-07 23:00:00 7.2 6 Este 17 Este 1.3 -- -- 95
2021-02-07 22:00:00 7.3 6 Este 15 Este 0.5 -- -- 93
2021-02-07 21:00:00 7.4 4 Este 9 Este 0.3 -- -- 92
2021-02-07 20:00:00 7.5 3 Sudoeste 9 Sudoeste 0.1 -- -- 89
2021-02-07 19:00:00 7.4 4 Oeste 13 Oeste 0 -- -- 89
2021-02-07 18:00:00 7.4 5 Oeste 19 Oeste 0.1 -- -- 87
2021-02-07 17:00:00 7.3 8 Oeste 26 Oeste 0.6 -- -- 85
2021-02-07 16:00:00 8.6 9 Oeste 28 Oeste 0.2 -- -- 76
2021-02-07 15:00:00 10.3 14 Oeste 28 Oeste 0 -- -- 64
2021-02-07 14:00:00 10.5 15 Oeste 26 Oeste 0 -- -- 59
2021-02-07 13:00:00 10.8 5 Oeste 18 Oeste 0 -- -- 68
2021-02-07 12:00:00 9 5 Oeste 17 Oeste 0 -- -- 76
2021-02-07 11:00:00 6.9 5 Noroeste 16 Noroeste 0 -- -- 85
2021-02-07 10:00:00 5.1 7 Noroeste 19 Noroeste 0 -- -- 85
2021-02-07 09:00:00 4.9 6 Noroeste 17 Norte 0 -- -- 83
2021-02-07 08:00:00 5.8 5 Norte 20 Noroeste 0 -- -- 74
2021-02-07 07:00:00 6.3 5 Noroeste 24 Norte 0 -- -- 71
2021-02-07 06:00:00 6.1 4 Norte 23 Norte 0 -- -- 74
2021-02-07 05:00:00 6.9 4 Norte 23 Norte 0 -- -- 71
2021-02-07 04:00:00 7.1 4 Noroeste 22 Norte 0 -- -- 73
2021-02-07 03:00:00 7.7 7 Norte 21 Norte 0 -- -- 70
2021-02-07 02:00:00 7.7 4 Norte 16 Norte 0 -- -- 71
2021-02-07 01:00:00 7.8 6 Nordeste 23 Nordeste 0 -- -- 73
2021-02-07 00:00:00 8.2 5 Norte 27 Nordeste 0 -- -- 74
2021-02-06 23:00:00 8.4 6 Norte 33 Nordeste 0 -- -- 76
2021-02-06 22:00:00 8.7 9 Norte 26 Nordeste 0 -- -- 79
2021-02-06 21:00:00 9.2 8 Norte 27 Norte 0 -- -- 81
2021-02-06 20:00:00 9.3 4 Norte 18 Noroeste 0.1 -- -- 85
2021-02-06 19:00:00 9.7 3 Noroeste 14 Norte 0.4 -- -- 90
2021-02-06 18:00:00 10.2 3 Noroeste 13 Norte 0.3 -- -- 89
2021-02-06 17:00:00 11 4 Noroeste 15 Noroeste 0 -- -- 87
2021-02-06 16:00:00 11.7 3 Noroeste 14 Oeste 0 -- -- 84
2021-02-06 15:00:00 11.1 4 Noroeste 10 Oeste 0.1 -- -- 89
2021-02-06 14:00:00 10.5 4 Sudoeste 7 Sudoeste 0 -- -- 91
2021-02-06 13:00:00 10.2 0 Calma 8 Sudeste 0.3 -- -- 94
2021-02-06 12:00:00 9.7 0 Calma 7 Este 0.8 -- -- 95
2021-02-06 11:00:00 9.6 0 Calma 4 Este 0 -- -- 96
2021-02-06 10:00:00 9.5 0 Calma 3 Oeste 0 -- -- 96
2021-02-06 09:00:00 9.2 0 Calma 4 Nordeste 0 -- -- 96
2021-02-06 08:00:00 9.1 0 Calma 5 Sudeste 0.2 -- -- 96
2021-02-06 07:00:00 9.1 0 Calma 4 Nordeste 0 -- -- 96
2021-02-06 06:00:00 9 0 Calma 7 Sudeste 0 -- -- 96
2021-02-06 05:00:00 9.2 2 Sudeste 11 Sudeste 2.6 -- -- 96
2021-02-06 04:00:00 9.3 0 Calma 9 Sudeste 1.1 -- -- 96
2021-02-06 03:00:00 9.5 0 Calma 9 Sudeste 0.9 -- -- 96
2021-02-06 02:00:00 9.4 3 Este 13 Sudeste 1.3 -- -- 96
2021-02-06 01:00:00 9.4 3 Este 10 Sudeste 1.7 -- -- 96
2021-02-06 00:00:00 9.2 3 Este 11 Este 1.6 -- -- 96
2021-02-05 23:00:00 9.2 3 Este 9 Este 0.8 -- -- 95
2021-02-05 22:00:00 9.4 0 Calma 8 Oeste 0 -- -- 95
2021-02-05 21:00:00 9.2 2 Oeste 7 Oeste 0.6 -- -- 94
2021-02-05 20:00:00 9.6 4 Oeste 13 Oeste 3.2 -- -- 94
2021-02-05 19:00:00 10.3 8 Oeste 15 Oeste 0.3 -- -- 94
2021-02-05 18:00:00 10.4 2 Sudoeste 18 Sudoeste 0.1 -- -- 92
2021-02-05 17:00:00 10.4 5 Noroeste 15 Oeste 0.5 -- -- 91
2021-02-05 16:00:00 10.7 4 Noroeste 12 Oeste 0.7 -- -- 90
2021-02-05 15:00:00 11.2 6 Oeste 14 Oeste 0.5 -- -- 88
2021-02-05 14:00:00 12 5 Oeste 12 Oeste 0 -- -- 82
2021-02-05 13:00:00 12.9 0 Calma 9 Sudeste 0 -- -- 79
2021-02-05 12:00:00 12.1 0 Calma 8 Este 0 -- -- 83
2021-02-05 11:00:00 11.9 0 Calma 51 Este 0 -- -- 80
2021-02-05 10:00:00 11 7 Este 27 Este 0 -- -- 87
2021-02-05 09:00:00 10.2 6 Este 23 Este 0.5 -- -- 94
2021-02-05 08:00:00 10.3 5 Este 16 Nordeste 3.4 -- -- 94
2021-02-05 07:00:00 10.2 5 Este 17 Este 2.3 -- -- 94
2021-02-05 06:00:00 10.3 4 Sudeste 21 Este 0.8 -- -- 93
2021-02-05 05:00:00 9.9 0 Calma 27 Este 0.3 -- -- 96
2021-02-05 04:00:00 8.7 0 Calma 19 Nordeste 0.6 -- -- 95
2021-02-05 03:00:00 8.6 3 Norte 16 Noroeste 0.3 -- -- 95
2021-02-05 02:00:00 8.8 2 Sudoeste 10 Sudoeste 0.2 -- -- 95
2021-02-05 01:00:00 8.7 0 Calma 14 Sudeste 0.1 -- -- 94
2021-02-05 00:00:00 8.8 4 Oeste 13 Nordeste 0.3 -- -- 94
2021-02-04 23:00:00 9 2 Sudeste 11 Este 0 -- -- 95
2021-02-04 22:00:00 8.6 5 Este 14 Este 0 -- -- 95
2021-02-04 21:00:00 8.7 0 Calma 18 Noroeste 1 -- -- 93
2021-02-04 20:00:00 9.2 3 Oeste 32 Este 0.4 -- -- 89
2021-02-04 19:00:00 8.4 11 Este 35 Este 0.8 -- -- 89
2021-02-04 18:00:00 9.3 4 Este 17 Este 0.8 -- -- 90
2021-02-04 17:00:00 9.6 2 Este 13 Nordeste 0.8 -- -- 89
2021-02-04 16:00:00 9.4 4 Nordeste 21 Norte 1.2 -- -- 85
2021-02-04 15:00:00 9.3 7 Norte 30 Nordeste 1.3 -- -- 84
2021-02-04 14:00:00 9.2 7 Nordeste 23 Nordeste 4.7 -- -- 94
2021-02-04 13:00:00 9.2 7 Noroeste 22 Noroeste 7.6 -- -- 95
2021-02-04 12:00:00 9.8 3 Nordeste 9 Nordeste 4.6 -- -- 95
2021-02-04 11:00:00 9.5 0 Calma 15 Este 5.3 -- -- 95
2021-02-04 10:00:00 9.6 4 Este 18 Este 1.3 -- -- 94
2021-02-04 09:00:00 9.6 8 Este 24 Este 0.6 -- -- 92
2021-02-04 08:00:00 9.5 7 Este 21 Sudeste 0 -- -- 91
2021-02-04 07:00:00 9.5 5 Este 15 Este 0.2 -- -- 90
2021-02-04 06:00:00 9.7 3 Este 14 Sudeste 0 -- -- 90
2021-02-04 05:00:00 9.8 5 Este 16 Este 0 -- -- 91
2021-02-04 04:00:00 10.2 4 Sudeste 17 Este 0 -- -- 92
2021-02-04 03:00:00 10.3 2 Sudeste 10 Sudeste 0.1 -- -- 95
2021-02-04 02:00:00 10.6 2 Este 12 Este 0.3 -- -- 95
2021-02-04 01:00:00 10.2 5 Este 12 Este 0.1 -- -- 94
2021-02-04 00:00:00 10.4 4 Este 10 Este 0.3 -- -- 94
2021-02-03 23:00:00 10.4 4 Nordeste 10 Este 0.4 -- -- 94
2021-02-03 22:00:00 10.6 4 Este 11 Oeste 0.9 -- -- 93
2021-02-03 21:00:00 10.6 3 Este 9 Sudeste 0.2 -- -- 93
2021-02-03 20:00:00 10.8 0 Calma 9 Sudeste 0.3 -- -- 93
2021-02-03 19:00:00 10.9 0 Calma 23 Oeste 2.7 -- -- 92
2021-02-03 18:00:00 11.6 7 Oeste 19 Oeste 4.3 -- -- 92
2021-02-03 17:00:00 12.2 3 Sur 13 Sur 1.8 -- -- 92
2021-02-03 16:00:00 12.3 2 Sur 17 Sudoeste 1.2 -- -- 90
2021-02-03 15:00:00 13.1 5 Sur 19 Sudoeste 0 -- -- 87
2021-02-03 14:00:00 13.2 4 Sur 18 Sur 0.4 -- -- 90
2021-02-03 13:00:00 11.7 3 Sur 17 Sur 0 -- -- 92
2021-02-03 12:00:00 10.7 2 Este 13 Este 0.4 -- -- 93
2021-02-03 11:00:00 10.4 3 Este 15 Este 0.9 -- -- 93
2021-02-03 10:00:00 10.1 3 Este 19 Este 0.7 -- -- 93
2021-02-03 09:00:00 10 4 Este 15 Este 1.3 -- -- 93
2021-02-03 08:00:00 9.9 4 Este 19 Este 0.4 -- -- 92
2021-02-03 07:00:00 10 7 Este 21 Este 1.1 -- -- 92
2021-02-03 06:00:00 10.3 4 Este 17 Este 0.2 -- -- 86
2021-02-03 05:00:00 10.8 3 Sudeste 21 Sudeste 0.1 -- -- 80
2021-02-03 04:00:00 11.1 4 Sur 20 Sur 0 -- -- 76
2021-02-03 03:00:00 11.5 5 Sur 15 Sur 0 -- -- 74
2021-02-03 02:00:00 11.5 2 Sur 15 Sur 0 -- -- 76
2021-02-03 01:00:00 11.5 2 Sur 10 Sur 0 -- -- 75
2021-02-03 00:00:00 11.6 0 Calma 13 Sudoeste 0 -- -- 75
2021-02-02 23:00:00 11.7 2 Sur 10 Sudoeste 0 -- -- 74
2021-02-02 22:00:00 11.7 2 Sur 12 Sur 0 -- -- 74
2021-02-02 21:00:00 11.9 2 Sudeste 18 Sudeste 0 -- -- 74
2021-02-02 20:00:00 11.9 3 Sur 14 Sudeste 0 -- -- 74
2021-02-02 19:00:00 12.2 3 Sur 13 Sudoeste 0 -- -- 73
2021-02-02 18:00:00 13 4 Sur 12 Sudoeste 0 -- -- 70
2021-02-02 17:00:00 13.4 3 Sur 12 Sudoeste 0 -- -- 69
2021-02-02 16:00:00 13.3 2 Sur 12 Sudoeste 0 -- -- 74
2021-02-02 15:00:00 13.3 3 Sudoeste 13 Oeste 0 -- -- 75
2021-02-02 14:00:00 13.2 5 Sudoeste 15 Oeste 0 -- -- 76
2021-02-02 13:00:00 12.6 5 Oeste 20 Oeste 0 -- -- 81
2021-02-02 12:00:00 12.6 5 Oeste 15 Oeste 0 -- -- 82
2021-02-02 11:00:00 11.9 0 Calma 13 Oeste 0.2 -- -- 94
2021-02-02 10:00:00 11.3 5 Oeste 13 Oeste 0.1 -- -- 94
2021-02-02 09:00:00 11.3 2 Sudoeste 8 Sudoeste 0.4 -- -- 94
2021-02-02 08:00:00 11.3 0 Calma 9 Oeste 0.2 -- -- 94
2021-02-02 07:00:00 11.3 4 Sudoeste 8 Sudoeste 0 -- -- 94
2021-02-02 06:00:00 11.3 0 Calma 6 Sur 0.1 -- -- 94
2021-02-02 05:00:00 11.2 0 Calma -- -- 0 -- -- 94
2021-02-02 04:00:00 11.2 0 Calma 4 Este 0.1 -- -- 94
2021-02-02 03:00:00 11.1 0 Calma 5 Este 0.3 -- -- 93
2021-02-02 02:00:00 11.2 0 Calma 6 Oeste 0.1 -- -- 92
2021-02-02 01:00:00 11.3 0 Calma 9 Oeste 0 -- -- 89
2021-02-02 00:00:00 11.6 5 Oeste 12 Oeste 0 -- -- 83
2021-02-01 23:00:00 11.7 4 Noroeste 15 Oeste 0 -- -- 79
2021-02-01 22:00:00 11.9 3 Oeste 13 Oeste 0 -- -- 76
2021-02-01 21:00:00 12.1 4 Oeste 15 Oeste 0 -- -- 75
2021-02-01 20:00:00 12.1 4 Oeste 17 Oeste 0 -- -- 75
2021-02-01 19:00:00 12.9 8 Oeste 17 Oeste 0 -- -- 72
2021-02-01 18:00:00 15.2 9 Oeste 26 Oeste 0 -- -- 66
2021-02-01 17:00:00 15.7 14 Oeste 30 Oeste 0 -- -- 64
2021-02-01 16:00:00 15.7 11 Oeste 25 Oeste 0 -- -- 65
2021-02-01 15:00:00 15.4 10 Oeste 30 Oeste 0 -- -- 68
2021-02-01 14:00:00 13.3 10 Oeste 25 Oeste 0 -- -- 72
2021-02-01 13:00:00 13.3 12 Oeste 29 Oeste 0 -- -- 76
2021-02-01 12:00:00 11.8 10 Oeste 23 Sudoeste 0 -- -- 87
2021-02-01 11:00:00 9.7 4 Noroeste 14 Oeste 0 -- -- 93
2021-02-01 10:00:00 8.4 4 Oeste 16 Noroeste 0 -- -- 93
2021-02-01 09:00:00 8.1 4 Noroeste 14 Noroeste 0 -- -- 92
2021-02-01 08:00:00 8.3 5 Noroeste 16 Noroeste 0 -- -- 92
2021-02-01 07:00:00 8.2 5 Noroeste 15 Noroeste 0.1 -- -- 92
2021-02-01 06:00:00 8.6 5 Noroeste 18 Noroeste 0 -- -- 92
2021-02-01 05:00:00 9.3 3 Noroeste 25 Noroeste 0 -- -- 90
2021-02-01 04:00:00 10.1 9 Oeste 20 Noroeste 0 -- -- 89
2021-02-01 03:00:00 10.1 5 Oeste 28 Oeste 0 -- -- 90
2021-02-01 02:00:00 10.2 12 Oeste 23 Oeste 0 -- -- 92
2021-02-01 01:00:00 10.7 12 Oeste 24 Oeste 0 -- -- 96
2021-02-01 00:00:00 11.8 6 Oeste 19 Noroeste 0 -- -- 96
2021-01-31 23:00:00 12.1 8 Oeste 22 Sudoeste 0 -- -- 96
2021-01-31 22:00:00 12.4 8 Oeste 19 Oeste 0 -- -- 96
2021-01-31 21:00:00 12.3 6 Oeste 18 Noroeste 0 -- -- 96
2021-01-31 20:00:00 11.9 3 Noroeste 14 Norte 0 -- -- 96
2021-01-31 19:00:00 11.9 4 Oeste 12 Sudoeste 0 -- -- 96
2021-01-31 18:00:00 11.8 3 Noroeste 10 Noroeste 0 -- -- 95
2021-01-31 17:00:00 11.4 3 Oeste 11 Noroeste 0.2 -- -- 95
2021-01-31 16:00:00 11.2 4 Noroeste 11 Norte 0.2 -- -- 95
2021-01-31 15:00:00 10.9 4 Noroeste 13 Noroeste 0.5 -- -- 95
2021-01-31 14:00:00 10.6 3 Oeste 10 Oeste 0.3 -- -- 95
2021-01-31 13:00:00 10.5 3 Noroeste 11 Oeste 0.7 -- -- 95
2021-01-31 12:00:00 9.7 5 Noroeste 12 Oeste 0.2 -- -- 95
2021-01-31 11:00:00 9.1 5 Oeste 10 Oeste 0.3 -- -- 95
2021-01-31 10:00:00 8.6 3 Oeste 9 Oeste 0.6 -- -- 93
2021-01-31 09:00:00 8.2 2 Noroeste 19 Noroeste 0.1 -- -- 92
2021-01-31 08:00:00 8 5 Noroeste 16 Noroeste 0.1 -- -- 91
2021-01-31 07:00:00 7.9 3 Noroeste 19 Oeste 0.1 -- -- 88
2021-01-31 06:00:00 8.2 6 Oeste 18 Oeste 0 -- -- 84
2021-01-31 05:00:00 7.6 5 Noroeste 18 Oeste 0 -- -- 84
2021-01-31 04:00:00 7.4 5 Oeste 19 Oeste 0 -- -- 83
2021-01-31 03:00:00 7.6 8 Oeste 23 Noroeste 0 -- -- 82
2021-01-31 02:00:00 7.3 5 Oeste 22 Oeste 0 -- -- 81
2021-01-31 01:00:00 9.3 13 Oeste 31 Noroeste 0 -- -- 72
2021-01-31 00:00:00 9.3 9 Noroeste 26 Oeste 0 -- -- 75